Time;durP1;ratioP1;P1;durP2;ratioP2;P2;SDS_P1;SDS_P2;PMS_P1;PMS_P2;Temp;Humidity;BMP_temperature;BMP_pressure;BME280_temperature;BME280_humidity;BME280_pressure;Samples;Min_cycle;Max_cycle;Signal;HPM_P1;HPM_P2
2023/07/14 00:00:44;;;;;;;4.43;4.03;;;25.20;65.20;;;;;;5013921;28;20516;-81
2023/07/14 00:03:16;;;;;;;7.23;4.77;;;25.30;66.50;;;;;;5014267;28;20463;-80
2023/07/14 00:05:44;;;;;;;4.70;4.20;;;25.20;65.10;;;;;;5012240;28;20468;-82
2023/07/14 00:08:17;;;;;;;7.87;4.40;;;25.30;65.80;;;;;;5007073;28;20472;-82
2023/07/14 00:10:45;;;;;;;7.03;4.70;;;25.20;65.20;;;;;;5014908;28;20429;-83
2023/07/14 00:13:14;;;;;;;5.20;4.70;;;25.20;65.20;;;;;;5023462;28;20484;-80
2023/07/14 00:15:42;;;;;;;5.77;4.33;;;25.20;65.20;;;;;;5013684;28;20461;-82
2023/07/14 00:18:16;;;;;;;7.40;4.53;;;25.00;65.20;;;;;;5006192;28;20465;-82
2023/07/14 00:20:44;;;;;;;4.43;4.03;;;24.70;65.20;;;;;;5008074;28;20467;-82
2023/07/14 00:23:13;;;;;;;9.70;4.00;;;24.80;67.00;;;;;;5009213;28;20472;-84
2023/07/14 00:25:41;;;;;;;8.67;3.83;;;24.70;66.10;;;;;;5016644;28;20442;-82
2023/07/14 00:28:15;;;;;;;6.63;4.40;;;24.80;67.80;;;;;;5030073;28;20431;-84
2023/07/14 00:30:42;;;;;;;4.53;4.20;;;24.80;64.80;;;;;;5029164;28;20421;-84
2023/07/14 00:33:11;;;;;;;4.07;3.77;;;24.80;66.00;;;;;;5022812;28;20482;-83
2023/07/14 00:35:41;;;;;;;4.20;3.80;;;24.80;66.90;;;;;;5021121;28;20984;-83
2023/07/14 00:38:09;;;;;;;4.30;3.90;;;24.90;65.40;;;;;;5025039;28;20507;-83
2023/07/14 00:40:38;;;;;;;4.13;3.90;;;24.90;65.00;;;;;;5026204;28;20419;-82
2023/07/14 00:43:06;;;;;;;8.20;3.83;;;24.90;65.70;;;;;;5016531;28;20472;-83
2023/07/14 00:45:34;;;;;;;6.00;3.53;;;24.90;66.00;;;;;;5022989;28;20522;-81
2023/07/14 00:48:04;;;;;;;4.30;3.90;;;25.00;65.60;;;;;;5013948;28;20473;-81
2023/07/14 00:50:35;;;;;;;6.90;4.53;;;25.20;63.80;;;;;;5013462;28;20452;-82
2023/07/14 00:53:06;;;;;;;5.10;3.60;;;25.00;64.10;;;;;;5008043;28;20460;-81
2023/07/14 00:55:41;;;;;;;4.83;4.00;;;25.00;64.50;;;;;;5029095;28;20530;-82
2023/07/14 00:58:17;;;;;;;4.37;4.00;;;25.00;65.10;;;;;;5007434;28;20459;-82
2023/07/14 01:01:09;;;;;;;4.60;4.13;;;25.10;63.90;;;;;;5022005;28;20514;-82
2023/07/14 01:03:40;;;;;;;5.87;4.93;;;25.10;63.50;;;;;;5021703;28;20422;-82
2023/07/14 01:06:11;;;;;;;5.43;4.47;;;24.90;63.40;;;;;;4993403;28;21025;-83
2023/07/14 01:08:44;;;;;;;5.33;4.77;;;24.70;65.80;;;;;;4997489;28;20418;-82
2023/07/14 01:11:11;;;;;;;5.37;4.87;;;24.50;65.10;;;;;;5005669;28;20506;-82
2023/07/14 01:13:39;;;;;;;10.10;4.40;;;24.40;65.60;;;;;;5013547;28;20468;-82
2023/07/14 01:16:08;;;;;;;8.20;6.03;;;24.30;66.40;;;;;;5016868;28;20546;-82
2023/07/14 01:18:36;;;;;;;6.47;5.93;;;23.90;65.70;;;;;;5017211;28;20472;-82
2023/07/14 01:21:05;;;;;;;6.73;5.93;;;23.70;67.10;;;;;;5011658;28;20461;-79
2023/07/14 01:23:51;;;;;;;8.70;6.77;;;23.40;67.80;;;;;;5032649;28;20539;-82
2023/07/14 01:26:27;;;;;;;8.43;5.90;;;23.50;68.80;;;;;;5008658;28;20528;-83
2023/07/14 01:28:56;;;;;;;6.30;5.70;;;23.50;68.30;;;;;;5037035;28;20435;-83
2023/07/14 01:31:25;;;;;;;11.57;6.07;;;23.50;68.60;;;;;;5033464;28;20440;-81
2023/07/14 01:33:53;;;;;;;5.43;4.93;;;23.70;67.50;;;;;;5039571;28;20519;-84
2023/07/14 01:36:22;;;;;;;8.63;6.33;;;23.70;69.70;;;;;;5060733;22;20517;-76
2023/07/14 01:38:50;;;;;;;5.60;5.10;;;23.70;67.30;;;;;;5055109;28;20478;-75
2023/07/14 01:41:18;;;;;;;8.87;5.60;;;23.70;70.70;;;;;;5053086;28;20496;-76
2023/07/14 01:43:46;;;;;;;8.00;6.80;;;23.90;68.50;;;;;;5055553;28;20503;-76
2023/07/14 01:46:17;;;;;;;7.03;6.33;;;23.90;65.90;;;;;;5055047;28;20551;-75
2023/07/14 01:48:58;;;;;;;8.17;6.53;;;24.00;66.80;;;;;;5055699;28;20469;-75
2023/07/14 01:51:27;;;;;;;9.33;7.70;;;23.80;66.50;;;;;;5055394;28;20427;-76
2023/07/14 01:53:58;;;;;;;9.40;6.47;;;23.70;65.90;;;;;;5054842;28;20492;-76
2023/07/14 01:56:26;;;;;;;9.80;7.40;;;23.70;67.80;;;;;;5054782;28;20516;-76
2023/07/14 01:58:57;;;;;;;10.13;6.47;;;23.60;66.60;;;;;;5047052;28;20471;-76
2023/07/14 02:01:27;;;;;;;13.10;8.00;;;23.50;69.50;;;;;;5049718;28;21022;-76
2023/07/14 02:03:56;;;;;;;12.93;7.87;;;23.50;66.70;;;;;;5044312;28;20443;-75
2023/07/14 02:06:24;;;;;;;11.20;6.70;;;23.50;67.30;;;;;;5055147;28;20462;-76
2023/07/14 02:08:52;;;;;;;8.60;6.87;;;23.60;68.80;;;;;;5054548;28;20488;-76
2023/07/14 02:11:22;;;;;;;10.43;7.53;;;23.70;67.80;;;;;;5054541;28;20466;-76
2023/07/14 02:13:50;;;;;;;16.17;8.33;;;23.70;66.70;;;;;;5047509;28;20450;-75
2023/07/14 02:16:19;;;;;;;7.67;6.70;;;23.60;67.20;;;;;;5054429;28;20508;-76
2023/07/14 02:18:48;;;;;;;8.00;6.70;;;23.50;67.70;;;;;;5054641;28;20437;-76
2023/07/14 02:21:21;;;;;;;10.07;7.50;;;23.70;66.80;;;;;;5038260;28;20553;-75
2023/07/14 02:23:49;;;;;;;9.90;8.10;;;23.50;66.90;;;;;;5054298;28;20517;-75
2023/07/14 02:26:22;;;;;;;7.13;5.90;;;23.30;67.30;;;;;;5038143;28;20512;-75
2023/07/14 02:28:50;;;;;;;9.17;7.53;;;23.30;68.90;;;;;;5041807;28;20463;-75
2023/07/14 02:31:21;;;;;;;9.87;7.60;;;23.30;68.00;;;;;;5050375;28;20980;-75
2023/07/14 02:33:51;;;;;;;8.70;7.50;;;23.40;66.90;;;;;;5034444;28;20641;-75
2023/07/14 02:36:23;;;;;;;10.07;7.30;;;23.50;66.70;;;;;;5029812;28;20484;-75
2023/07/14 02:38:55;;;;;;;9.60;8.10;;;23.30;67.90;;;;;;5049888;28;20561;-75
2023/07/14 02:41:25;;;;;;;9.73;6.83;;;23.10;67.60;;;;;;5048730;28;20530;-76
2023/07/14 02:43:54;;;;;;;12.83;7.50;;;23.10;68.80;;;;;;5033706;28;20519;-76
2023/07/14 02:46:25;;;;;;;9.40;7.80;;;23.10;67.00;;;;;;5038973;28;20498;-75
2023/07/14 02:48:54;;;;;;;10.10;8.33;;;23.10;67.90;;;;;;5053596;28;20445;-76
2023/07/14 02:51:22;;;;;;;17.87;12.30;;;23.10;68.00;;;;;;5053790;28;20827;-76
2023/07/14 02:53:50;;;;;;;9.87;8.30;;;23.40;69.20;;;;;;5053673;28;20447;-76
2023/07/14 02:56:19;;;;;;;8.30;7.10;;;23.50;67.30;;;;;;5042290;28;20550;-75
2023/07/14 02:58:49;;;;;;;10.83;7.93;;;23.60;66.30;;;;;;5034134;28;20511;-76
2023/07/14 03:01:18;;;;;;;8.13;6.83;;;23.60;67.40;;;;;;5049833;28;20447;-75
2023/07/14 03:03:46;;;;;;;7.90;6.60;;;23.70;66.10;;;;;;5053143;28;20451;-76
2023/07/14 03:06:16;;;;;;;7.53;6.77;;;23.80;66.20;;;;;;5053274;28;20486;-76
2023/07/14 03:08:44;;;;;;;9.90;7.30;;;23.90;65.20;;;;;;5041852;28;20493;-75
2023/07/14 03:11:12;;;;;;;7.50;6.70;;;23.90;65.30;;;;;;5052888;28;20537;-75
2023/07/14 03:13:40;;;;;;;9.83;6.60;;;24.00;65.10;;;;;;5052696;28;20949;-75
2023/07/14 03:16:08;;;;;;;12.00;6.47;;;23.90;64.30;;;;;;5053276;28;20486;-75
2023/07/14 03:18:36;;;;;;;7.80;7.00;;;23.90;64.50;;;;;;5053178;28;20449;-75
2023/07/14 03:21:04;;;;;;;7.60;6.33;;;23.90;64.50;;;;;;5044113;28;20542;-75
2023/07/14 03:23:34;;;;;;;7.03;6.37;;;23.90;64.70;;;;;;5045026;28;20409;-75
2023/07/14 03:26:03;;;;;;;8.00;7.03;;;24.10;64.10;;;;;;5053084;28;20450;-75
2023/07/14 03:28:31;;;;;;;7.97;6.60;;;24.10;63.70;;;;;;5047988;28;20406;-75
2023/07/14 03:31:01;;;;;;;8.10;6.50;;;24.00;63.80;;;;;;5033159;28;20527;-75
2023/07/14 03:33:29;;;;;;;12.57;7.20;;;24.00;63.90;;;;;;5042818;28;20906;-75
2023/07/14 03:36:00;;;;;;;7.07;5.60;;;24.00;63.60;;;;;;5047490;28;20536;-75
2023/07/14 03:38:28;;;;;;;13.23;6.73;;;24.00;63.70;;;;;;5051788;28;20438;-75
2023/07/14 03:40:58;;;;;;;11.77;5.90;;;24.10;63.40;;;;;;5036442;28;20479;-75
2023/07/14 03:43:25;;;;;;;11.07;6.57;;;24.20;63.50;;;;;;5044579;28;20454;-75
2023/07/14 03:45:53;;;;;;;14.00;6.20;;;24.30;62.10;;;;;;5049094;28;20514;-75
2023/07/14 03:48:23;;;;;;;8.70;6.40;;;24.20;62.50;;;;;;5042937;28;20464;-76
2023/07/14 03:50:51;;;;;;;7.50;5.70;;;24.10;63.30;;;;;;5043901;28;20438;-75
2023/07/14 03:53:20;;;;;;;8.30;6.10;;;24.20;62.80;;;;;;5044242;28;20447;-75
2023/07/14 03:55:48;;;;;;;11.60;6.50;;;24.20;63.60;;;;;;5045514;28;20533;-76
2023/07/14 03:58:18;;;;;;;9.93;6.50;;;24.30;63.00;;;;;;5046513;28;20455;-76
2023/07/14 04:00:46;;;;;;;7.77;6.97;;;24.20;62.10;;;;;;5052621;28;20405;-75
2023/07/14 04:03:15;;;;;;;6.87;6.10;;;24.20;62.70;;;;;;5052675;28;20417;-76
2023/07/14 04:05:45;;;;;;;8.27;7.40;;;24.10;62.70;;;;;;5038170;28;20538;-75
2023/07/14 04:08:13;;;;;;;8.13;6.30;;;24.10;61.90;;;;;;5032330;28;20961;-75
2023/07/14 04:10:41;;;;;;;8.13;6.80;;;23.80;63.30;;;;;;5046030;28;20467;-76
2023/07/14 04:13:09;;;;;;;8.60;6.97;;;23.80;64.60;;;;;;5042499;28;20949;-75
2023/07/14 04:15:38;;;;;;;13.80;7.60;;;23.80;63.20;;;;;;5042881;28;20443;-76
2023/07/14 04:18:06;;;;;;;12.17;7.30;;;23.80;63.00;;;;;;5043460;28;20968;-76
2023/07/14 04:20:34;;;;;;;8.03;6.63;;;23.70;63.60;;;;;;5052069;28;20481;-75
2023/07/14 04:23:02;;;;;;;8.43;7.53;;;23.60;64.30;;;;;;5047001;28;20459;-75
2023/07/14 04:25:31;;;;;;;12.23;7.63;;;23.60;64.40;;;;;;5047907;28;20472;-75
2023/07/14 04:28:03;;;;;;;6.30;5.70;;;23.40;65.00;;;;;;5049150;28;20418;-75
2023/07/14 04:30:32;;;;;;;8.93;8.03;;;23.60;66.20;;;;;;5048124;28;20509;-75
2023/07/14 04:33:01;;;;;;;9.17;8.20;;;23.40;64.30;;;;;;5052932;28;20451;-75
2023/07/14 04:35:29;;;;;;;11.47;8.40;;;23.40;64.70;;;;;;5044047;28;20459;-76
2023/07/14 04:37:58;;;;;;;13.50;7.97;;;23.20;65.00;;;;;;5051725;28;20414;-75
2023/07/14 04:40:26;;;;;;;9.00;8.00;;;23.10;65.20;;;;;;5037168;28;20441;-75
2023/07/14 04:43:03;;;;;;;12.43;7.70;;;23.00;66.80;;;;;;5052091;28;20488;-75
2023/07/14 04:45:31;;;;;;;10.87;7.87;;;23.00;66.50;;;;;;5051834;28;20417;-75
2023/07/14 04:48:01;;;;;;;10.43;9.33;;;23.00;67.10;;;;;;5051459;28;20409;-75
2023/07/14 04:50:29;;;;;;;11.13;8.30;;;22.90;67.00;;;;;;5043730;28;20431;-75
2023/07/14 04:52:57;;;;;;;14.03;9.83;;;22.80;67.30;;;;;;5047583;28;20446;-75
2023/07/14 04:55:26;;;;;;;12.50;9.50;;;22.50;67.20;;;;;;5052134;28;20484;-75
2023/07/14 04:57:54;;;;;;;15.20;9.40;;;22.60;68.80;;;;;;5045519;28;20466;-75
2023/07/14 05:00:22;;;;;;;10.20;8.43;;;22.60;68.50;;;;;;5051404;28;20498;-75
2023/07/14 05:02:50;;;;;;;10.43;9.07;;;22.80;70.00;;;;;;5046288;28;20414;-75
2023/07/14 05:05:21;;;;;;;12.33;8.83;;;22.90;68.10;;;;;;5050252;28;20435;-75
2023/07/14 05:07:49;;;;;;;16.97;9.00;;;23.00;67.40;;;;;;5050960;28;20448;-75
2023/07/14 05:10:18;;;;;;;11.87;8.53;;;22.80;69.00;;;;;;5055462;28;20417;-75
2023/07/14 05:12:46;;;;;;;13.10;9.43;;;22.90;68.30;;;;;;5055755;28;20418;-75
2023/07/14 05:15:14;;;;;;;11.60;9.10;;;23.00;69.20;;;;;;5054352;28;20533;-75
2023/07/14 05:17:43;;;;;;;12.70;8.53;;;23.10;67.60;;;;;;5049106;28;20473;-76
2023/07/14 05:20:12;;;;;;;11.63;8.70;;;23.00;69.00;;;;;;5056022;28;20466;-76
2023/07/14 05:22:44;;;;;;;12.77;8.77;;;23.20;68.20;;;;;;5042312;28;20451;-75
2023/07/14 05:25:13;;;;;;;9.90;8.83;;;23.20;67.70;;;;;;5038385;28;20485;-75
2023/07/14 05:27:43;;;;;;;13.40;9.70;;;23.10;67.90;;;;;;5055290;28;20450;-75
2023/07/14 05:30:14;;;;;;;13.73;9.00;;;23.20;68.00;;;;;;5055528;28;20417;-75
2023/07/14 05:32:43;;;;;;;13.50;8.33;;;23.00;68.40;;;;;;5047638;28;20504;-75
2023/07/14 05:35:11;;;;;;;11.73;8.63;;;22.90;69.60;;;;;;5055384;28;20445;-75
2023/07/14 05:37:40;;;;;;;14.37;10.50;;;22.80;69.90;;;;;;5055292;28;20570;-75
2023/07/14 05:40:11;;;;;;;14.87;9.70;;;22.80;68.90;;;;;;5063013;28;21064;-75
2023/07/14 05:42:39;;;;;;;13.27;9.70;;;22.70;70.60;;;;;;5055089;28;20500;-75
2023/07/14 05:45:07;;;;;;;13.17;9.40;;;22.60;71.20;;;;;;5055346;28;20441;-75
2023/07/14 05:47:37;;;;;;;14.13;9.70;;;22.70;70.90;;;;;;5046925;28;20441;-75
2023/07/14 05:50:05;;;;;;;13.27;9.47;;;22.80;70.40;;;;;;5047340;28;20446;-75
2023/07/14 05:52:33;;;;;;;12.87;10.10;;;22.80;71.50;;;;;;5050369;28;20450;-75
2023/07/14 05:55:05;;;;;;;16.30;12.00;;;22.70;70.60;;;;;;5055066;28;20446;-75
2023/07/14 05:57:35;;;;;;;16.07;12.70;;;22.50;71.70;;;;;;5035535;28;20537;-75
2023/07/14 06:00:05;;;;;;;17.83;12.53;;;22.20;72.60;;;;;;5041685;28;20467;-75
2023/07/14 06:02:34;;;;;;;18.40;10.60;;;22.30;73.40;;;;;;5046631;28;20428;-75
2023/07/14 06:05:03;;;;;;;22.83;12.03;;;22.60;74.60;;;;;;5047546;28;20477;-76
2023/07/14 06:07:32;;;;;;;14.63;9.77;;;22.60;73.00;;;;;;5048223;28;20559;-75
2023/07/14 06:10:00;;;;;;;24.03;12.47;;;22.90;73.60;;;;;;5054626;28;20492;-75
2023/07/14 06:12:28;;;;;;;16.60;10.97;;;23.00;71.80;;;;;;5044105;28;20500;-76
2023/07/14 06:14:57;;;;;;;15.90;10.40;;;23.00;71.80;;;;;;5035339;28;20479;-75
2023/07/14 06:17:25;;;;;;;17.83;11.70;;;22.80;72.10;;;;;;5052811;28;20437;-75
2023/07/14 06:19:53;;;;;;;15.23;10.47;;;22.70;73.00;;;;;;5054102;28;20468;-76
2023/07/14 06:22:21;;;;;;;12.77;10.27;;;22.80;73.10;;;;;;5046011;28;20456;-76
2023/07/14 06:24:49;;;;;;;15.27;8.70;;;23.20;71.80;;;;;;5054096;28;20969;-75
2023/07/14 06:27:17;;;;;;;13.73;10.43;;;23.50;72.30;;;;;;5046958;28;20546;-75
2023/07/14 06:29:46;;;;;;;9.87;8.87;;;23.70;69.80;;;;;;5054300;28;20409;-76
2023/07/14 06:32:16;;;;;;;10.27;6.93;;;23.70;70.20;;;;;;5045982;28;20458;-75
2023/07/14 06:34:44;;;;;;;7.17;6.20;;;23.90;71.00;;;;;;5039070;28;20451;-76
2023/07/14 06:37:12;;;;;;;18.57;8.90;;;24.10;70.10;;;;;;5037167;28;20505;-76
2023/07/14 06:39:40;;;;;;;17.90;8.57;;;24.20;67.00;;;;;;5034047;28;20410;-76
2023/07/14 06:42:09;;;;;;;8.63;6.87;;;24.10;68.50;;;;;;5034320;28;20466;-76
2023/07/14 06:44:37;;;;;;;12.60;8.50;;;24.20;68.00;;;;;;5045258;28;20485;-76
2023/07/14 06:47:06;;;;;;;11.20;6.80;;;24.10;67.30;;;;;;5040619;28;20936;-77
2023/07/14 06:49:35;;;;;;;11.40;8.57;;;24.10;68.70;;;;;;5043184;28;20432;-76
2023/07/14 06:52:04;;;;;;;13.07;8.57;;;24.10;68.30;;;;;;5048142;28;20472;-76
2023/07/14 06:54:32;;;;;;;13.10;8.10;;;24.40;68.50;;;;;;5045415;28;20508;-76
2023/07/14 06:57:00;;;;;;;12.07;7.67;;;24.30;66.90;;;;;;5042061;28;20480;-76
2023/07/14 06:59:28;;;;;;;13.80;7.30;;;24.30;67.40;;;;;;5051687;28;20441;-76
2023/07/14 07:01:56;;;;;;;12.60;6.40;;;24.40;67.00;;;;;;5038403;28;20449;-76
2023/07/14 07:04:24;;;;;;;11.00;8.07;;;24.60;67.40;;;;;;5033168;28;20458;-76
2023/07/14 07:06:53;;;;;;;12.57;7.60;;;24.50;66.10;;;;;;5034948;28;20544;-77
2023/07/14 07:09:21;;;;;;;9.97;7.83;;;24.30;67.30;;;;;;5032997;28;20934;-77
2023/07/14 07:11:49;;;;;;;10.47;6.73;;;24.30;67.10;;;;;;5040450;28;20479;-76
2023/07/14 07:14:17;;;;;;;8.67;6.67;;;24.40;67.30;;;;;;5051130;28;20452;-76
2023/07/14 07:16:44;;;;;;;14.97;5.53;;;24.80;67.00;;;;;;5043245;28;20594;-76
2023/07/14 07:19:13;;;;;;;6.47;5.20;;;24.80;65.90;;;;;;5043630;28;20428;-76
2023/07/14 07:21:40;;;;;;;5.80;4.83;;;24.80;66.20;;;;;;5030963;28;20448;-77
2023/07/14 07:24:10;;;;;;;9.30;6.00;;;25.00;65.70;;;;;;5036431;28;20523;-76
2023/07/14 07:26:37;;;;;;;9.00;6.47;;;25.00;63.80;;;;;;5033770;28;20445;-76
2023/07/14 07:29:08;;;;;;;7.30;5.97;;;25.10;63.90;;;;;;5037974;28;20437;-76
2023/07/14 07:31:36;;;;;;;10.27;6.60;;;25.00;63.60;;;;;;5045529;28;20409;-76
2023/07/14 07:34:05;;;;;;;10.60;5.80;;;25.00;63.80;;;;;;5032463;28;20445;-76
2023/07/14 07:36:33;;;;;;;10.50;6.67;;;25.10;64.80;;;;;;5032730;28;20532;-76
2023/07/14 07:39:01;;;;;;;9.90;6.83;;;25.10;64.10;;;;;;5037060;28;20501;-76
2023/07/14 07:41:30;;;;;;;11.10;5.13;;;25.00;63.10;;;;;;5035592;28;20481;-76
2023/07/14 07:43:58;;;;;;;7.60;5.50;;;24.80;63.10;;;;;;5045742;28;20437;-76
2023/07/14 07:46:27;;;;;;;7.13;5.73;;;24.80;63.90;;;;;;5032979;28;20487;-76
2023/07/14 07:48:56;;;;;;;7.13;5.20;;;25.20;64.10;;;;;;5048826;28;20564;-76
2023/07/14 07:51:23;;;;;;;7.40;5.10;;;25.30;63.00;;;;;;5047430;28;20514;-76
2023/07/14 07:53:53;;;;;;;9.93;5.40;;;25.50;62.70;;;;;;5049596;28;20430;-76
2023/07/14 07:56:21;;;;;;;8.93;4.80;;;25.50;61.90;;;;;;5050929;28;20486;-75
2023/07/14 07:58:50;;;;;;;8.00;5.40;;;25.60;61.80;;;;;;5042281;28;20446;-76
2023/07/14 08:01:21;;;;;;;9.47;5.33;;;25.50;61.60;;;;;;5043853;28;20452;-76
2023/07/14 08:03:51;;;;;;;6.10;5.30;;;25.70;61.40;;;;;;5039985;28;20941;-75
2023/07/14 08:06:19;;;;;;;10.80;5.37;;;25.70;61.90;;;;;;5042468;28;20471;-76
2023/07/14 08:08:47;;;;;;;7.63;4.77;;;25.70;60.70;;;;;;5041936;28;20451;-76
2023/07/14 08:11:16;;;;;;;12.13;5.43;;;25.90;61.20;;;;;;5040085;28;20533;-74
2023/07/14 08:13:44;;;;;;;9.93;6.10;;;25.90;60.60;;;;;;5049378;28;21130;-75
2023/07/14 08:16:13;;;;;;;11.47;5.37;;;25.80;60.70;;;;;;5053696;28;20519;-74
2023/07/14 08:18:42;;;;;;;9.43;5.63;;;26.00;61.20;;;;;;5045965;28;20417;-75
2023/07/14 08:21:10;;;;;;;7.30;4.83;;;26.10;61.50;;;;;;5039101;28;20532;-74
2023/07/14 08:23:40;;;;;;;6.20;4.83;;;26.40;61.80;;;;;;5038773;28;20509;-75
2023/07/14 08:26:08;;;;;;;6.60;4.70;;;26.60;61.30;;;;;;5049320;28;20452;-75
2023/07/14 08:28:36;;;;;;;18.93;4.17;;;26.60;58.60;;;;;;5042469;28;20891;-78
2023/07/14 08:31:08;;;;;;;14.60;3.73;;;26.80;59.40;;;;;;5049388;28;20465;-77
2023/07/14 08:33:42;;;;;;;7.10;2.90;;;27.20;58.10;;;;;;5042092;28;20447;-77
2023/07/14 08:36:11;;;;;;;8.13;2.80;;;27.60;57.40;;;;;;5048943;28;20473;-76
2023/07/14 08:38:40;;;;;;;12.93;3.00;;;28.00;56.70;;;;;;5038228;28;20413;-77
2023/07/14 08:41:16;;;;;;;5.03;2.90;;;28.20;55.90;;;;;;5040586;28;20476;-77
2023/07/14 08:43:49;;;;;;;5.37;3.40;;;28.40;55.20;;;;;;5040972;28;20438;-76
2023/07/14 08:46:20;;;;;;;7.77;3.40;;;28.50;54.90;;;;;;5047263;28;20487;-75
2023/07/14 08:48:59;;;;;;;9.37;2.87;;;28.60;54.60;;;;;;5046265;28;20443;-77
2023/07/14 08:51:29;;;;;;;6.90;2.93;;;28.60;54.50;;;;;;5050514;28;20437;-76
2023/07/14 08:54:00;;;;;;;5.80;2.90;;;28.80;54.30;;;;;;5048056;28;20442;-76
2023/07/14 08:56:29;;;;;;;8.17;3.00;;;28.80;54.10;;;;;;5046579;28;21045;-77
2023/07/14 08:58:56;;;;;;;7.90;3.30;;;29.00;54.00;;;;;;5040570;28;20522;-77
2023/07/14 09:01:28;;;;;;;8.17;3.30;;;29.20;53.70;;;;;;5039050;28;20562;-77
2023/07/14 09:04:00;;;;;;;6.30;2.97;;;29.30;53.50;;;;;;5037615;28;20435;-77
2023/07/14 09:06:30;;;;;;;5.63;3.30;;;29.50;53.10;;;;;;5039697;28;21001;-77
2023/07/14 09:08:58;;;;;;;3.47;2.83;;;29.50;53.00;;;;;;5040367;28;20918;-77
2023/07/14 09:11:38;;;;;;;6.20;2.83;;;29.60;52.80;;;;;;5033825;28;20431;-77
2023/07/14 09:14:12;;;;;;;6.23;2.80;;;29.70;52.50;;;;;;5039122;28;20953;-77
2023/07/14 09:16:43;;;;;;;7.23;3.17;;;29.80;52.50;;;;;;5042725;28;20464;-77
2023/07/14 09:19:18;;;;;;;3.40;3.10;;;29.80;52.30;;;;;;5048880;28;20457;-77
2023/07/14 09:21:47;;;;;;;3.47;3.17;;;29.90;52.10;;;;;;5047831;28;21067;-77
2023/07/14 09:24:18;;;;;;;4.10;2.83;;;29.90;51.90;;;;;;5043000;28;20478;-77
2023/07/14 09:26:46;;;;;;;5.87;3.03;;;30.00;52.00;;;;;;5041123;28;20982;-77
2023/07/14 09:29:16;;;;;;;2.80;2.60;;;30.10;51.60;;;;;;5043676;28;20458;-78
2023/07/14 09:31:48;;;;;;;2.83;2.60;;;30.20;51.60;;;;;;5042259;28;20443;-78
2023/07/14 09:34:22;;;;;;;3.93;2.47;;;30.30;51.50;;;;;;5043235;28;20509;-77
2023/07/14 09:36:50;;;;;;;5.13;2.80;;;30.50;51.10;;;;;;5041777;28;20482;-80
2023/07/14 09:39:21;;;;;;;4.10;2.93;;;30.60;51.00;;;;;;5052945;28;20470;-78
2023/07/14 09:41:52;;;;;;;6.50;2.73;;;30.70;50.90;;;;;;5044412;28;20557;-78
2023/07/14 09:44:20;;;;;;;2.83;2.63;;;30.80;50.80;;;;;;5050200;28;20438;-77
2023/07/14 09:46:48;;;;;;;3.33;2.83;;;30.90;50.60;;;;;;5046087;28;20519;-77
2023/07/14 09:49:24;;;;;;;2.43;2.33;;;31.10;50.40;;;;;;5036220;28;20943;-79
2023/07/14 09:52:13;;;;;;;6.37;2.70;;;31.10;50.70;;;;;;5041461;28;21004;-77
2023/07/14 09:54:51;;;;;;;4.07;2.60;;;31.10;50.00;;;;;;5037741;28;20487;-78
2023/07/14 09:57:19;;;;;;;2.50;2.40;;;31.30;50.40;;;;;;5036328;28;20533;-77
2023/07/14 10:00:01;;;;;;;3.23;2.37;;;31.60;50.20;;;;;;5041594;28;20447;-78
2023/07/14 10:02:30;;;;;;;2.93;2.60;;;31.70;49.80;;;;;;5043825;28;20469;-79
2023/07/14 10:05:03;;;;;;;4.07;2.60;;;31.60;49.40;;;;;;5045711;28;20879;-79
2023/07/14 10:07:40;;;;;;;2.63;2.43;;;31.50;49.50;;;;;;5043099;28;20992;-78
2023/07/14 10:10:09;;;;;;;5.60;2.67;;;31.30;49.60;;;;;;5043150;28;20478;-79
2023/07/14 10:12:40;;;;;;;4.03;2.80;;;31.20;49.90;;;;;;5034966;28;20478;-79
2023/07/14 10:15:30;;;;;;;2.20;2.00;;;31.20;50.00;;;;;;5044773;28;20524;-79
2023/07/14 10:17:59;;;;;;;3.27;2.97;;;31.20;50.20;;;;;;5055081;28;20526;-80
2023/07/14 10:20:28;;;;;;;4.60;2.70;;;31.10;50.20;;;;;;5048490;28;20440;-79
2023/07/14 10:22:57;;;;;;;3.67;3.20;;;31.10;50.10;;;;;;5046150;28;20538;-79
2023/07/14 10:25:26;;;;;;;2.67;2.47;;;31.00;50.30;;;;;;5041228;28;20452;-80
2023/07/14 10:28:00;;;;;;;2.70;2.60;;;31.00;50.40;;;;;;5040452;28;21008;-79
2023/07/14 10:31:00;;;;;;;4.10;3.00;;;30.90;50.40;;;;;;5057116;28;20479;-79
2023/07/14 10:33:43;;;;;;;2.63;2.43;;;30.80;50.50;;;;;;4975481;28;20465;-79
2023/07/14 10:36:21;;;;;;;4.40;3.13;;;30.70;50.40;;;;;;5028391;28;20479;-80
2023/07/14 10:38:51;;;;;;;3.00;2.80;;;30.70;50.40;;;;;;5035734;28;20882;-79
2023/07/14 10:41:19;;;;;;;2.93;2.63;;;30.70;50.50;;;;;;5044987;28;20520;-77
2023/07/14 10:43:49;;;;;;;5.00;2.70;;;30.60;50.40;;;;;;5045838;28;20451;-80
2023/07/14 10:46:19;;;;;;;3.13;2.93;;;30.50;50.60;;;;;;5042235;28;20442;-79
2023/07/14 10:48:49;;;;;;;2.77;2.50;;;30.40;50.60;;;;;;5043718;28;20801;-79
2023/07/14 10:51:28;;;;;;;5.43;2.73;;;30.30;50.40;;;;;;5044246;28;20406;-80
2023/07/14 10:53:57;;;;;;;2.90;2.70;;;30.30;50.50;;;;;;5037881;28;20515;-81
2023/07/14 10:56:27;;;;;;;3.20;2.50;;;30.30;50.50;;;;;;5047410;28;20487;-79
2023/07/14 10:58:57;;;;;;;3.00;2.70;;;30.30;50.40;;;;;;5043731;28;20952;-80
2023/07/14 11:01:30;;;;;;;3.77;2.67;;;30.50;50.40;;;;;;5053929;28;20516;-80
2023/07/14 11:04:00;;;;;;;3.20;2.87;;;30.60;49.80;;;;;;5034350;28;20521;-78
2023/07/14 11:06:30;;;;;;;2.67;2.47;;;30.80;49.80;;;;;;5038559;28;20470;-78
2023/07/14 11:08:58;;;;;;;3.77;2.70;;;30.90;49.40;;;;;;5035221;28;20478;-77
2023/07/14 11:11:29;;;;;;;2.80;2.40;;;31.10;49.40;;;;;;5046597;28;20450;-79
2023/07/14 11:14:04;;;;;;;2.67;2.47;;;31.30;49.10;;;;;;5043524;28;20497;-79
2023/07/14 11:16:33;;;;;;;2.27;2.17;;;31.60;49.10;;;;;;5040964;28;20491;-77
2023/07/14 11:19:06;;;;;;;2.83;2.63;;;31.80;48.50;;;;;;5039798;28;20452;-79
2023/07/14 11:21:39;;;;;;;2.93;2.70;;;31.90;48.10;;;;;;5057055;28;20574;-80
2023/07/14 11:24:17;;;;;;;2.50;2.30;;;32.00;47.80;;;;;;5048819;28;20518;-80
2023/07/14 11:26:56;;;;;;;2.70;2.50;;;32.00;47.60;;;;;;5053252;28;20441;-80
2023/07/14 11:29:26;;;;;;;2.50;2.30;;;32.00;47.70;;;;;;5052851;28;20865;-80
2023/07/14 11:31:57;;;;;;;3.00;2.70;;;31.90;47.80;;;;;;5037031;28;20523;-79
2023/07/14 11:34:28;;;;;;;2.70;2.60;;;31.90;47.80;;;;;;5037110;28;20523;-80
2023/07/14 11:37:05;;;;;;;3.47;2.80;;;32.00;47.80;;;;;;5036502;28;20472;-79
2023/07/14 11:39:43;;;;;;;2.50;2.33;;;32.00;47.70;;;;;;5050251;28;20458;-79
2023/07/14 11:42:16;;;;;;;2.53;2.33;;;32.20;47.40;;;;;;5050734;28;20496;-79
2023/07/14 11:44:45;;;;;;;3.07;2.73;;;32.50;47.10;;;;;;5053379;28;20532;-79
2023/07/14 11:47:15;;;;;;;2.50;2.40;;;32.90;48.00;;;;;;5039552;28;20533;-80
2023/07/14 11:49:43;;;;;;;2.33;2.23;;;33.00;46.20;;;;;;5032921;28;20526;-79
2023/07/14 11:52:13;;;;;;;5.50;2.40;;;33.30;46.70;;;;;;5044543;28;20492;-79
2023/07/14 11:54:44;;;;;;;2.00;1.90;;;34.20;45.70;;;;;;5053045;28;20431;-80
2023/07/14 11:57:16;;;;;;;2.30;2.20;;;34.60;44.40;;;;;;5047240;28;20553;-79
2023/07/14 11:59:56;;;;;;;2.23;2.07;;;35.70;43.70;;;;;;5049588;28;20999;-79
2023/07/14 12:02:30;;;;;;;2.90;2.03;;;36.50;41.60;;;;;;5054564;28;20430;-80
2023/07/14 12:04:59;;;;;;;2.97;2.77;;;36.00;41.30;;;;;;5052732;28;20478;-79
2023/07/14 12:07:29;;;;;;;2.47;2.33;;;35.60;41.60;;;;;;5052699;28;20520;-79
2023/07/14 12:10:10;;;;;;;2.50;2.40;;;35.20;42.10;;;;;;5052211;28;20481;-78
2023/07/14 12:12:39;;;;;;;4.07;2.30;;;34.70;42.70;;;;;;5053803;28;20446;-79
2023/07/14 12:15:41;;;;;;;2.47;2.20;;;34.50;43.20;;;;;;5049393;28;20493;-79
2023/07/14 12:18:26;;;;;;;2.20;2.10;;;34.20;43.60;;;;;;5053031;28;20524;-79
2023/07/14 12:21:21;;;;;;;2.27;2.17;;;33.90;43.90;;;;;;5056535;28;20541;-79
2023/07/14 12:23:52;;;;;;;2.37;2.07;;;33.80;44.40;;;;;;5047310;28;20481;-79
2023/07/14 12:26:23;;;;;;;2.50;2.40;;;33.80;44.90;;;;;;5054717;28;20541;-79
2023/07/14 12:28:53;;;;;;;2.40;2.30;;;33.80;44.50;;;;;;5057850;28;20473;-80
2023/07/14 12:31:20;;;;;;;3.47;2.30;;;33.80;44.60;;;;;;5047081;28;20494;-79
2023/07/14 12:33:48;;;;;;;2.60;2.50;;;33.70;44.60;;;;;;5052755;28;20430;-79
2023/07/14 12:36:18;;;;;;;2.47;2.27;;;33.60;44.50;;;;;;5053722;28;20485;-80
2023/07/14 12:38:47;;;;;;;2.80;2.57;;;33.50;44.90;;;;;;5055216;28;20541;-80
2023/07/14 12:41:16;;;;;;;2.77;2.60;;;33.40;45.00;;;;;;5055483;28;20464;-80
2023/07/14 12:43:48;;;;;;;2.43;2.33;;;33.40;45.30;;;;;;5055828;28;21063;-79
2023/07/14 12:46:18;;;;;;;2.20;2.10;;;33.40;45.00;;;;;;5048132;28;20497;-79
2023/07/14 12:48:47;;;;;;;2.60;2.50;;;33.60;45.10;;;;;;5047991;28;20446;-80
2023/07/14 12:51:17;;;;;;;2.40;2.30;;;34.30;45.00;;;;;;5054417;28;20438;-79
2023/07/14 12:53:50;;;;;;;2.27;2.17;;;34.30;44.20;;;;;;5054896;28;20470;-79
2023/07/14 12:56:19;;;;;;;2.30;2.20;;;34.30;43.80;;;;;;5045394;28;20549;-79
2023/07/14 12:58:47;;;;;;;2.47;2.37;;;34.20;43.90;;;;;;5052916;28;20438;-79